sensor_id;sensor_type;location;lat;lon;timestamp;pressure;altitude;pressure_sealevel;temperature;humidity
68859;BME280;55864;49.238;8.092;2023-03-08T00:00:53;98037.63;;;4.90;58.22
68859;BME280;55864;49.238;8.092;2023-03-08T00:02:54;98038.72;;;4.77;58.49
68859;BME280;55864;49.238;8.092;2023-03-08T00:04:55;98034.09;;;4.71;59.08
68859;BME280;55864;49.238;8.092;2023-03-08T00:06:56;98040.66;;;4.75;58.43
68859;BME280;55864;49.238;8.092;2023-03-08T00:08:57;98042.66;;;4.91;58.09
68859;BME280;55864;49.238;8.092;2023-03-08T00:10:58;98054.34;;;4.77;58.32
68859;BME280;55864;49.238;8.092;2023-03-08T00:12:58;98038.72;;;4.77;58.08
68859;BME280;55864;49.238;8.092;2023-03-08T00:14:59;98036.09;;;4.87;58.87
68859;BME280;55864;49.238;8.092;2023-03-08T00:17:01;98035.69;;;4.92;57.57
68859;BME280;55864;49.238;8.092;2023-03-08T00:19:01;98030.50;;;4.92;58.56
68859;BME280;55864;49.238;8.092;2023-03-08T00:21:04;98039.00;;;4.84;57.82
68859;BME280;55864;49.238;8.092;2023-03-08T00:23:04;98029.81;;;4.90;58.54
68859;BME280;55864;49.238;8.092;2023-03-08T00:25:06;98010.94;;;4.88;57.72
68859;BME280;55864;49.238;8.092;2023-03-08T00:27:07;98009.53;;;4.93;57.44
68859;BME280;55864;49.238;8.092;2023-03-08T00:29:07;98005.19;;;4.84;57.71
68859;BME280;55864;49.238;8.092;2023-03-08T00:31:10;97999.69;;;4.87;57.69
68859;BME280;55864;49.238;8.092;2023-03-08T00:33:12;98001.91;;;4.82;57.40
68859;BME280;55864;49.238;8.092;2023-03-08T00:35:13;98013.03;;;4.74;58.52
68859;BME280;55864;49.238;8.092;2023-03-08T00:37:14;98005.63;;;4.70;58.57
68859;BME280;55864;49.238;8.092;2023-03-08T00:39:14;98002.78;;;4.73;57.76
68859;BME280;55864;49.238;8.092;2023-03-08T00:41:15;98010.13;;;4.77;57.50
68859;BME280;55864;49.238;8.092;2023-03-08T00:43:15;98006.16;;;4.73;57.96
68859;BME280;55864;49.238;8.092;2023-03-08T00:45:16;97998.28;;;4.65;57.34
68859;BME280;55864;49.238;8.092;2023-03-08T00:47:16;98001.94;;;4.72;58.25
68859;BME280;55864;49.238;8.092;2023-03-08T00:49:18;98001.78;;;4.74;56.88
68859;BME280;55864;49.238;8.092;2023-03-08T00:51:19;97996.06;;;4.70;57.13
68859;BME280;55864;49.238;8.092;2023-03-08T00:53:20;98003.84;;;4.70;58.02
68859;BME280;55864;49.238;8.092;2023-03-08T00:55:21;98002.34;;;4.68;56.92
68859;BME280;55864;49.238;8.092;2023-03-08T00:57:21;97994.97;;;4.73;57.71
68859;BME280;55864;49.238;8.092;2023-03-08T00:59:22;97998.78;;;4.78;57.00
68859;BME280;55864;49.238;8.092;2023-03-08T01:01:24;97991.25;;;4.75;56.81
68859;BME280;55864;49.238;8.092;2023-03-08T01:03:26;97994.66;;;4.76;56.70
68859;BME280;55864;49.238;8.092;2023-03-08T01:05:30;97992.56;;;4.89;57.74
68859;BME280;55864;49.238;8.092;2023-03-08T01:07:30;97980.28;;;4.82;57.60
68859;BME280;55864;49.238;8.092;2023-03-08T01:09:31;97985.66;;;4.70;57.33
68859;BME280;55864;49.238;8.092;2023-03-08T01:11:31;97986.03;;;4.75;57.58
68859;BME280;55864;49.238;8.092;2023-03-08T01:13:34;97981.28;;;4.71;57.99
68859;BME280;55864;49.238;8.092;2023-03-08T01:15:35;97976.88;;;4.71;57.96
68859;BME280;55864;49.238;8.092;2023-03-08T01:17:38;97978.53;;;4.72;56.98
68859;BME280;55864;49.238;8.092;2023-03-08T01:19:38;97969.34;;;4.78;56.99
68859;BME280;55864;49.238;8.092;2023-03-08T01:21:40;97964.84;;;4.70;57.62
68859;BME280;55864;49.238;8.092;2023-03-08T01:23:41;97961.88;;;4.65;58.46
68859;BME280;55864;49.238;8.092;2023-03-08T01:25:41;97967.72;;;4.67;58.67
68859;BME280;55864;49.238;8.092;2023-03-08T01:27:43;97959.09;;;4.76;57.23
68859;BME280;55864;49.238;8.092;2023-03-08T01:29:44;97957.16;;;4.78;58.15
68859;BME280;55864;49.238;8.092;2023-03-08T01:31:44;97955.28;;;4.71;57.23
68859;BME280;55864;49.238;8.092;2023-03-08T01:33:45;97959.53;;;4.62;58.46
68859;BME280;55864;49.238;8.092;2023-03-08T01:35:48;97957.06;;;4.70;57.71
68859;BME280;55864;49.238;8.092;2023-03-08T01:37:50;97954.47;;;4.61;57.72
68859;BME280;55864;49.238;8.092;2023-03-08T01:39:51;97950.63;;;4.65;57.88
68859;BME280;55864;49.238;8.092;2023-03-08T01:41:51;97946.53;;;4.62;58.31
68859;BME280;55864;49.238;8.092;2023-03-08T01:43:53;97940.50;;;4.62;58.93
68859;BME280;55864;49.238;8.092;2023-03-08T01:46:21;97950.59;;;4.74;58.24
68859;BME280;55864;49.238;8.092;2023-03-08T01:48:29;97938.59;;;4.64;59.07
68859;BME280;55864;49.238;8.092;2023-03-08T01:50:38;97935.06;;;4.55;59.21
68859;BME280;55864;49.238;8.092;2023-03-08T01:52:42;97936.44;;;4.59;57.99
68859;BME280;55864;49.238;8.092;2023-03-08T01:54:46;97939.97;;;4.58;58.66
68859;BME280;55864;49.238;8.092;2023-03-08T01:56:48;97939.88;;;4.50;58.16
68859;BME280;55864;49.238;8.092;2023-03-08T01:58:50;97936.91;;;4.72;57.49
68859;BME280;55864;49.238;8.092;2023-03-08T02:00:51;97938.34;;;4.57;58.19
68859;BME280;55864;49.238;8.092;2023-03-08T02:02:54;97925.91;;;4.51;58.20
68859;BME280;55864;49.238;8.092;2023-03-08T02:04:56;97923.63;;;4.39;59.30
68859;BME280;55864;49.238;8.092;2023-03-08T02:06:56;97925.56;;;4.37;59.23
68859;BME280;55864;49.238;8.092;2023-03-08T02:08:58;97922.28;;;4.35;59.48
68859;BME280;55864;49.238;8.092;2023-03-08T02:11:00;97916.03;;;4.18;59.27
68859;BME280;55864;49.238;8.092;2023-03-08T02:13:01;97906.59;;;4.17;59.55
68859;BME280;55864;49.238;8.092;2023-03-08T02:15:04;97906.75;;;4.06;60.03
68859;BME280;55864;49.238;8.092;2023-03-08T02:17:06;97906.91;;;3.95;60.69
68859;BME280;55864;49.238;8.092;2023-03-08T02:19:09;97905.53;;;3.91;60.93
68859;BME280;55864;49.238;8.092;2023-03-08T02:21:11;97901.44;;;3.79;61.00
68859;BME280;55864;49.238;8.092;2023-03-08T02:23:15;97902.66;;;3.94;60.05
68859;BME280;55864;49.238;8.092;2023-03-08T02:25:17;97894.88;;;3.84;61.01
68859;BME280;55864;49.238;8.092;2023-03-08T02:27:21;97896.78;;;3.82;61.22
68859;BME280;55864;49.238;8.092;2023-03-08T02:29:23;97896.53;;;3.86;60.81
68859;BME280;55864;49.238;8.092;2023-03-08T02:31:23;97898.00;;;3.88;60.35
68859;BME280;55864;49.238;8.092;2023-03-08T02:33:24;97890.78;;;3.92;60.38
68859;BME280;55864;49.238;8.092;2023-03-08T02:35:25;97885.03;;;3.78;61.07
68859;BME280;55864;49.238;8.092;2023-03-08T02:37:25;97891.88;;;3.79;60.85
68859;BME280;55864;49.238;8.092;2023-03-08T02:39:27;97877.53;;;3.66;61.50
68859;BME280;55864;49.238;8.092;2023-03-08T02:41:28;97877.56;;;3.47;62.83
68859;BME280;55864;49.238;8.092;2023-03-08T02:43:29;97867.31;;;3.45;63.13
68859;BME280;55864;49.238;8.092;2023-03-08T02:45:29;97866.47;;;3.26;63.97
68859;BME280;55864;49.238;8.092;2023-03-08T02:47:30;97864.19;;;3.32;63.17
68859;BME280;55864;49.238;8.092;2023-03-08T02:49:30;97860.63;;;3.43;63.07
68859;BME280;55864;49.238;8.092;2023-03-08T02:51:31;97862.81;;;3.28;63.43
68859;BME280;55864;49.238;8.092;2023-03-08T02:53:32;97868.28;;;3.35;63.50
68859;BME280;55864;49.238;8.092;2023-03-08T02:55:35;97860.06;;;3.39;62.76
68859;BME280;55864;49.238;8.092;2023-03-08T02:57:36;97848.31;;;3.26;63.59
68859;BME280;55864;49.238;8.092;2023-03-08T02:59:38;97850.91;;;3.26;63.69
68859;BME280;55864;49.238;8.092;2023-03-08T03:01:39;97855.69;;;3.21;63.79
68859;BME280;55864;49.238;8.092;2023-03-08T03:03:39;97855.03;;;3.38;63.18
68859;BME280;55864;49.238;8.092;2023-03-08T03:05:41;97853.50;;;3.35;63.27
68859;BME280;55864;49.238;8.092;2023-03-08T03:07:42;97849.44;;;3.23;63.77
68859;BME280;55864;49.238;8.092;2023-03-08T03:09:48;97849.53;;;3.31;63.40
68859;BME280;55864;49.238;8.092;2023-03-08T03:11:50;97845.47;;;3.29;63.82
68859;BME280;55864;49.238;8.092;2023-03-08T03:13:55;97843.56;;;3.21;64.14
68859;BME280;55864;49.238;8.092;2023-03-08T03:15:56;97839.44;;;3.19;64.17
68859;BME280;55864;49.238;8.092;2023-03-08T03:17:57;97833.44;;;3.09;64.10
68859;BME280;55864;49.238;8.092;2023-03-08T03:19:58;97823.88;;;3.28;63.25
68859;BME280;55864;49.238;8.092;2023-03-08T03:21:59;97825.09;;;3.15;63.60
68859;BME280;55864;49.238;8.092;2023-03-08T03:23:59;97825.53;;;3.29;63.05
68859;BME280;55864;49.238;8.092;2023-03-08T03:26:15;97837.00;;;3.27;63.32
68859;BME280;55864;49.238;8.092;2023-03-08T03:28:19;97827.31;;;3.29;63.39
68859;BME280;55864;49.238;8.092;2023-03-08T03:30:20;97822.38;;;3.07;64.50
68859;BME280;55864;49.238;8.092;2023-03-08T03:32:21;97820.06;;;3.04;64.75
68859;BME280;55864;49.238;8.092;2023-03-08T03:34:21;97810.66;;;3.03;64.86
68859;BME280;55864;49.238;8.092;2023-03-08T03:36:23;97811.72;;;2.91;65.23
68859;BME280;55864;49.238;8.092;2023-03-08T03:38:24;97808.16;;;2.82;65.87
68859;BME280;55864;49.238;8.092;2023-03-08T03:40:25;97808.03;;;2.83;65.62
68859;BME280;55864;49.238;8.092;2023-03-08T03:42:31;97803.00;;;3.11;64.81
68859;BME280;55864;49.238;8.092;2023-03-08T03:44:40;97797.69;;;3.03;65.58
68859;BME280;55864;49.238;8.092;2023-03-08T03:46:44;97798.91;;;2.99;65.77
68859;BME280;55864;49.238;8.092;2023-03-08T03:48:47;97797.00;;;2.91;65.73
68859;BME280;55864;49.238;8.092;2023-03-08T03:50:54;97802.59;;;3.06;65.37
68859;BME280;55864;49.238;8.092;2023-03-08T03:52:54;97805.72;;;3.00;65.27
68859;BME280;55864;49.238;8.092;2023-03-08T03:54:55;97797.56;;;3.14;64.93
68859;BME280;55864;49.238;8.092;2023-03-08T03:56:56;97797.69;;;3.12;65.27
68859;BME280;55864;49.238;8.092;2023-03-08T03:58:58;97804.78;;;3.20;64.84
68859;BME280;55864;49.238;8.092;2023-03-08T04:01:06;97808.19;;;3.11;64.76
68859;BME280;55864;49.238;8.092;2023-03-08T04:03:06;97805.72;;;3.09;64.95
68859;BME280;55864;49.238;8.092;2023-03-08T04:05:09;97805.88;;;3.08;65.11
68859;BME280;55864;49.238;8.092;2023-03-08T04:07:11;97808.75;;;3.05;65.47
68859;BME280;55864;49.238;8.092;2023-03-08T04:09:17;97798.63;;;3.11;65.08
68859;BME280;55864;49.238;8.092;2023-03-08T04:11:25;97794.41;;;3.10;64.86
68859;BME280;55864;49.238;8.092;2023-03-08T04:13:26;97787.72;;;3.08;65.60
68859;BME280;55864;49.238;8.092;2023-03-08T04:15:27;97792.50;;;3.12;65.18
68859;BME280;55864;49.238;8.092;2023-03-08T04:17:29;97787.56;;;3.00;65.71
68859;BME280;55864;49.238;8.092;2023-03-08T04:19:30;97789.34;;;2.99;66.21
68859;BME280;55864;49.238;8.092;2023-03-08T04:21:32;97779.25;;;3.06;66.04
68859;BME280;55864;49.238;8.092;2023-03-08T04:23:34;97779.66;;;3.01;65.89
68859;BME280;55864;49.238;8.092;2023-03-08T04:25:35;97782.94;;;3.03;65.96
68859;BME280;55864;49.238;8.092;2023-03-08T04:27:38;97774.88;;;3.06;65.18
68859;BME280;55864;49.238;8.092;2023-03-08T04:29:39;97778.97;;;2.99;65.81
68859;BME280;55864;49.238;8.092;2023-03-08T04:31:40;97774.59;;;3.00;66.08
68859;BME280;55864;49.238;8.092;2023-03-08T04:33:46;97768.88;;;3.06;65.83
68859;BME280;55864;49.238;8.092;2023-03-08T04:35:51;97774.88;;;2.97;66.15
68859;BME280;55864;49.238;8.092;2023-03-08T04:37:57;97767.78;;;3.08;65.76
68859;BME280;55864;49.238;8.092;2023-03-08T04:40:10;97765.06;;;2.91;66.19
68859;BME280;55864;49.238;8.092;2023-03-08T04:42:19;97763.28;;;3.01;66.19
68859;BME280;55864;49.238;8.092;2023-03-08T04:44:22;97748.66;;;3.00;66.20
68859;BME280;55864;49.238;8.092;2023-03-08T04:46:26;97746.75;;;3.02;66.02
68859;BME280;55864;49.238;8.092;2023-03-08T04:48:27;97744.72;;;2.96;66.39
68859;BME280;55864;49.238;8.092;2023-03-08T04:50:29;97740.06;;;2.99;66.36
68859;BME280;55864;49.238;8.092;2023-03-08T04:52:31;97742.94;;;2.96;66.20
68859;BME280;55864;49.238;8.092;2023-03-08T04:54:32;97743.78;;;3.06;65.80
68859;BME280;55864;49.238;8.092;2023-03-08T04:56:39;97750.31;;;3.20;65.35
68859;BME280;55864;49.238;8.092;2023-03-08T04:58:40;97746.63;;;3.13;65.73
68859;BME280;55864;49.238;8.092;2023-03-08T05:00:41;97738.03;;;3.03;65.86
68859;BME280;55864;49.238;8.092;2023-03-08T05:02:42;97741.31;;;3.05;65.64
68859;BME280;55864;49.238;8.092;2023-03-08T05:04:47;97738.59;;;2.97;66.37
68859;BME280;55864;49.238;8.092;2023-03-08T05:06:50;97733.66;;;3.03;66.29
68859;BME280;55864;49.238;8.092;2023-03-08T05:08:55;97734.75;;;3.01;66.36
68859;BME280;55864;49.238;8.092;2023-03-08T05:10:58;97727.09;;;2.99;66.29
68859;BME280;55864;49.238;8.092;2023-03-08T05:13:01;97721.50;;;3.04;65.87
68859;BME280;55864;49.238;8.092;2023-03-08T05:15:02;97717.56;;;3.00;65.69
68859;BME280;55864;49.238;8.092;2023-03-08T05:17:03;97726.00;;;3.02;65.92
68859;BME280;55864;49.238;8.092;2023-03-08T05:19:07;97712.66;;;3.06;65.47
68859;BME280;55864;49.238;8.092;2023-03-08T05:21:14;97726.16;;;3.00;65.89
68859;BME280;55864;49.238;8.092;2023-03-08T05:23:17;97730.50;;;3.09;65.88
68859;BME280;55864;49.238;8.092;2023-03-08T05:25:18;97731.59;;;3.07;65.58
68859;BME280;55864;49.238;8.092;2023-03-08T05:27:19;97736.09;;;3.24;65.48
68859;BME280;55864;49.238;8.092;2023-03-08T05:29:20;97725.28;;;3.38;65.20
68859;BME280;55864;49.238;8.092;2023-03-08T05:31:21;97717.78;;;3.44;64.51
68859;BME280;55864;49.238;8.092;2023-03-08T05:33:24;97712.00;;;3.50;65.23
68859;BME280;55864;49.238;8.092;2023-03-08T05:35:25;97719.91;;;3.49;64.89
68859;BME280;55864;49.238;8.092;2023-03-08T05:37:26;97710.91;;;3.53;64.49
68859;BME280;55864;49.238;8.092;2023-03-08T05:39:28;97702.03;;;3.55;64.39
68859;BME280;55864;49.238;8.092;2023-03-08T05:41:35;97689.00;;;3.65;64.63
68859;BME280;55864;49.238;8.092;2023-03-08T05:43:37;97672.91;;;3.61;64.61
68859;BME280;55864;49.238;8.092;2023-03-08T05:45:39;97680.94;;;3.68;64.73
68859;BME280;55864;49.238;8.092;2023-03-08T05:47:40;97683.38;;;3.69;65.15
68859;BME280;55864;49.238;8.092;2023-03-08T05:49:42;97680.44;;;3.55;65.07
68859;BME280;55864;49.238;8.092;2023-03-08T05:51:45;97683.59;;;3.49;65.45
68859;BME280;55864;49.238;8.092;2023-03-08T05:53:46;97679.75;;;3.53;66.15
68859;BME280;55864;49.238;8.092;2023-03-08T05:55:50;97669.81;;;3.39;65.82
68859;BME280;55864;49.238;8.092;2023-03-08T05:57:51;97674.06;;;3.40;66.43
68859;BME280;55864;49.238;8.092;2023-03-08T05:59:52;97671.19;;;3.43;65.92
68859;BME280;55864;49.238;8.092;2023-03-08T06:01:56;97665.28;;;3.50;65.42
68859;BME280;55864;49.238;8.092;2023-03-08T06:04:08;97664.75;;;3.47;65.80
68859;BME280;55864;49.238;8.092;2023-03-08T06:06:12;97653.50;;;3.56;66.15
68859;BME280;55864;49.238;8.092;2023-03-08T06:08:13;97643.94;;;3.56;65.45
68859;BME280;55864;49.238;8.092;2023-03-08T06:10:15;97639.19;;;3.52;65.49
68859;BME280;55864;49.238;8.092;2023-03-08T06:12:17;97629.91;;;3.49;65.53
68859;BME280;55864;49.238;8.092;2023-03-08T06:14:20;97636.34;;;3.45;65.85
68859;BME280;55864;49.238;8.092;2023-03-08T06:16:20;97638.78;;;3.47;65.93
68859;BME280;55864;49.238;8.092;2023-03-08T06:18:22;97637.69;;;3.49;66.53
68859;BME280;55864;49.238;8.092;2023-03-08T06:20:23;97627.03;;;3.52;65.43
68859;BME280;55864;49.238;8.092;2023-03-08T06:22:25;97637.66;;;3.59;65.87
68859;BME280;55864;49.238;8.092;2023-03-08T06:24:26;97634.09;;;3.60;65.54
68859;BME280;55864;49.238;8.092;2023-03-08T06:26:28;97643.84;;;3.48;65.59
68859;BME280;55864;49.238;8.092;2023-03-08T06:28:30;97646.28;;;3.59;65.50
68859;BME280;55864;49.238;8.092;2023-03-08T06:30:31;97641.34;;;3.56;65.18
68859;BME280;55864;49.238;8.092;2023-03-08T06:32:31;97636.00;;;3.58;65.61
68859;BME280;55864;49.238;8.092;2023-03-08T06:34:33;97640.66;;;3.54;65.81
68859;BME280;55864;49.238;8.092;2023-03-08T06:36:34;97622.81;;;3.51;67.10
68859;BME280;55864;49.238;8.092;2023-03-08T06:38:36;97630.59;;;3.51;67.12
68859;BME280;55864;49.238;8.092;2023-03-08T06:40:37;97631.91;;;3.65;67.77
68859;BME280;55864;49.238;8.092;2023-03-08T06:42:38;97641.09;;;3.59;68.21
68859;BME280;55864;49.238;8.092;2023-03-08T06:44:40;97645.34;;;3.51;68.64
68859;BME280;55864;49.238;8.092;2023-03-08T06:46:40;97645.09;;;3.44;69.25
68859;BME280;55864;49.238;8.092;2023-03-08T06:48:41;97642.06;;;3.49;69.72
68859;BME280;55864;49.238;8.092;2023-03-08T06:50:42;97637.06;;;3.38;70.45
68859;BME280;55864;49.238;8.092;2023-03-08T06:52:43;97632.41;;;3.41;70.62
68859;BME280;55864;49.238;8.092;2023-03-08T06:54:44;97630.63;;;3.42;70.49
68859;BME280;55864;49.238;8.092;2023-03-08T06:56:46;97632.69;;;3.38;71.41
68859;BME280;55864;49.238;8.092;2023-03-08T06:58:46;97630.13;;;3.29;71.62
68859;BME280;55864;49.238;8.092;2023-03-08T07:00:48;97624.13;;;3.28;72.13
68859;BME280;55864;49.238;8.092;2023-03-08T07:02:49;97619.22;;;3.25;72.65
68859;BME280;55864;49.238;8.092;2023-03-08T07:04:49;97614.31;;;3.22;73.49
68859;BME280;55864;49.238;8.092;2023-03-08T07:06:50;97620.31;;;3.23;73.49
68859;BME280;55864;49.238;8.092;2023-03-08T07:08:50;97611.84;;;3.21;74.58
68859;BME280;55864;49.238;8.092;2023-03-08T07:10:51;97608.22;;;3.14;74.95
68859;BME280;55864;49.238;8.092;2023-03-08T07:12:52;97611.06;;;3.11;76.00
68859;BME280;55864;49.238;8.092;2023-03-08T07:14:52;97599.88;;;3.10;76.13
68859;BME280;55864;49.238;8.092;2023-03-08T07:16:54;97602.09;;;2.96;77.22
68859;BME280;55864;49.238;8.092;2023-03-08T07:18:54;97593.66;;;2.84;78.62
68859;BME280;55864;49.238;8.092;2023-03-08T07:20:55;97587.13;;;2.90;78.57
68859;BME280;55864;49.238;8.092;2023-03-08T07:22:56;97579.78;;;2.75;79.53
68859;BME280;55864;49.238;8.092;2023-03-08T07:24:57;97583.31;;;2.74;80.33
68859;BME280;55864;49.238;8.092;2023-03-08T07:26:57;97577.34;;;2.74;80.64
68859;BME280;55864;49.238;8.092;2023-03-08T07:28:58;97585.28;;;2.63;81.51
68859;BME280;55864;49.238;8.092;2023-03-08T07:30:58;97575.81;;;2.71;81.32
68859;BME280;55864;49.238;8.092;2023-03-08T07:33:00;97568.75;;;2.54;82.12
68859;BME280;55864;49.238;8.092;2023-03-08T07:35:01;97568.91;;;2.62;81.98
68859;BME280;55864;49.238;8.092;2023-03-08T07:37:01;97571.50;;;2.53;82.94
68859;BME280;55864;49.238;8.092;2023-03-08T07:39:02;97562.91;;;2.52;82.59
68859;BME280;55864;49.238;8.092;2023-03-08T07:41:04;97566.56;;;2.59;82.86
68859;BME280;55864;49.238;8.092;2023-03-08T07:43:05;97564.41;;;2.45;83.94
68859;BME280;55864;49.238;8.092;2023-03-08T07:45:37;97561.97;;;2.53;83.27
68859;BME280;55864;49.238;8.092;2023-03-08T07:47:39;97554.47;;;2.41;84.23
68859;BME280;55864;49.238;8.092;2023-03-08T07:49:40;97534.84;;;2.48;83.96
68859;BME280;55864;49.238;8.092;2023-03-08T07:51:41;97531.41;;;2.47;83.45
68859;BME280;55864;49.238;8.092;2023-03-08T07:53:42;97528.56;;;2.41;84.12
68859;BME280;55864;49.238;8.092;2023-03-08T07:55:42;97519.44;;;2.37;84.70
68859;BME280;55864;49.238;8.092;2023-03-08T07:57:43;97518.09;;;2.23;85.05
68859;BME280;55864;49.238;8.092;2023-03-08T07:59:43;97515.50;;;2.33;85.19
68859;BME280;55864;49.238;8.092;2023-03-08T08:01:44;97512.09;;;2.13;86.42
68859;BME280;55864;49.238;8.092;2023-03-08T08:03:44;97507.16;;;2.29;85.63
68859;BME280;55864;49.238;8.092;2023-03-08T08:05:46;97503.78;;;2.29;85.13
68859;BME280;55864;49.238;8.092;2023-03-08T08:07:47;97506.78;;;2.24;85.60
68859;BME280;55864;49.238;8.092;2023-03-08T08:09:48;97502.81;;;2.30;85.83
68859;BME280;55864;49.238;8.092;2023-03-08T08:11:48;97495.59;;;2.24;85.93
68859;BME280;55864;49.238;8.092;2023-03-08T08:13:49;97489.31;;;2.26;85.86
68859;BME280;55864;49.238;8.092;2023-03-08T08:15:56;97493.00;;;2.14;86.34
68859;BME280;55864;49.238;8.092;2023-03-08T08:17:57;97488.28;;;1.90;87.38
68859;BME280;55864;49.238;8.092;2023-03-08T08:19:57;97484.31;;;1.77;88.09
68859;BME280;55864;49.238;8.092;2023-03-08T08:21:59;97481.03;;;1.56;87.98
68859;BME280;55864;49.238;8.092;2023-03-08T08:24:00;97477.91;;;1.43;89.07
68859;BME280;55864;49.238;8.092;2023-03-08T08:26:03;97488.09;;;1.35;89.00
68859;BME280;55864;49.238;8.092;2023-03-08T08:28:04;97490.28;;;1.30;90.32
68859;BME280;55864;49.238;8.092;2023-03-08T08:30:06;97478.03;;;1.32;90.37
68859;BME280;55864;49.238;8.092;2023-03-08T08:32:07;97476.38;;;1.31;90.79
68859;BME280;55864;49.238;8.092;2023-03-08T08:34:07;97468.78;;;1.48;91.23
68859;BME280;55864;49.238;8.092;2023-03-08T08:36:13;97461.88;;;1.68;90.82
68859;BME280;55864;49.238;8.092;2023-03-08T08:38:16;97453.00;;;1.80;90.19
68859;BME280;55864;49.238;8.092;2023-03-08T08:40:16;97433.22;;;1.98;88.76
68859;BME280;55864;49.238;8.092;2023-03-08T08:42:17;97427.09;;;1.99;88.73
68859;BME280;55864;49.238;8.092;2023-03-08T08:44:17;97431.03;;;2.03;88.54
68859;BME280;55864;49.238;8.092;2023-03-08T08:46:18;97436.22;;;2.03;88.80
68859;BME280;55864;49.238;8.092;2023-03-08T08:48:18;97435.94;;;2.06;88.65
68859;BME280;55864;49.238;8.092;2023-03-08T08:50:19;97446.81;;;2.19;88.20
68859;BME280;55864;49.238;8.092;2023-03-08T08:52:19;97437.50;;;2.36;86.76
68859;BME280;55864;49.238;8.092;2023-03-08T08:54:21;97437.69;;;2.61;86.29
68859;BME280;55864;49.238;8.092;2023-03-08T08:56:24;97424.00;;;2.42;86.10
68859;BME280;55864;49.238;8.092;2023-03-08T08:58:25;97429.81;;;2.53;86.21
68859;BME280;55864;49.238;8.092;2023-03-08T09:00:26;97418.66;;;2.43;86.07
68859;BME280;55864;49.238;8.092;2023-03-08T09:02:26;97422.19;;;2.42;86.15
68859;BME280;55864;49.238;8.092;2023-03-08T09:04:27;97409.84;;;2.36;86.45
68859;BME280;55864;49.238;8.092;2023-03-08T09:06:28;97413.09;;;2.38;86.53
68859;BME280;55864;49.238;8.092;2023-03-08T09:08:28;97407.94;;;2.65;85.47
68859;BME280;55864;49.238;8.092;2023-03-08T09:10:34;97402.22;;;2.62;85.37
68859;BME280;55864;49.238;8.092;2023-03-08T09:12:35;97398.63;;;2.45;86.02
68859;BME280;55864;49.238;8.092;2023-03-08T09:14:36;97399.63;;;2.62;85.64
68859;BME280;55864;49.238;8.092;2023-03-08T09:16:36;97392.56;;;2.54;85.68
68859;BME280;55864;49.238;8.092;2023-03-08T09:18:37;97386.59;;;2.44;85.95
68859;BME280;55864;49.238;8.092;2023-03-08T09:20:37;97388.06;;;2.56;85.41
68859;BME280;55864;49.238;8.092;2023-03-08T09:22:38;97372.16;;;2.69;85.49
68859;BME280;55864;49.238;8.092;2023-03-08T09:24:39;97381.81;;;2.76;84.66
68859;BME280;55864;49.238;8.092;2023-03-08T09:26:41;97390.47;;;2.67;84.84
68859;BME280;55864;49.238;8.092;2023-03-08T09:28:42;97370.50;;;2.50;85.61
68859;BME280;55864;49.238;8.092;2023-03-08T09:30:42;97379.75;;;2.53;86.03
68859;BME280;55864;49.238;8.092;2023-03-08T09:32:43;97377.44;;;2.50;86.31
68859;BME280;55864;49.238;8.092;2023-03-08T09:34:43;97362.19;;;2.47;86.66
68859;BME280;55864;49.238;8.092;2023-03-08T09:36:44;97361.09;;;2.49;86.72
68859;BME280;55864;49.238;8.092;2023-03-08T09:38:46;97359.47;;;2.48;86.80
68859;BME280;55864;49.238;8.092;2023-03-08T09:40:55;97366.63;;;2.64;86.19
68859;BME280;55864;49.238;8.092;2023-03-08T09:43:03;97356.97;;;2.56;86.94
68859;BME280;55864;49.238;8.092;2023-03-08T09:45:22;97351.50;;;2.59;86.76
68859;BME280;55864;49.238;8.092;2023-03-08T09:47:43;97347.31;;;2.49;87.56
68859;BME280;55864;49.238;8.092;2023-03-08T09:49:49;97341.53;;;2.64;86.75
68859;BME280;55864;49.238;8.092;2023-03-08T09:51:58;97350.81;;;2.30;88.77
68859;BME280;55864;49.238;8.092;2023-03-08T09:54:04;97337.00;;;2.39;88.35
68859;BME280;55864;49.238;8.092;2023-03-08T09:56:15;97334.72;;;2.36;89.17
68859;BME280;55864;49.238;8.092;2023-03-08T09:58:26;97322.50;;;2.46;88.88
68859;BME280;55864;49.238;8.092;2023-03-08T10:00:33;97329.50;;;2.46;89.38
68859;BME280;55864;49.238;8.092;2023-03-08T10:02:39;97316.09;;;2.50;89.82
68859;BME280;55864;49.238;8.092;2023-03-08T10:04:51;97307.22;;;2.53;89.63
68859;BME280;55864;49.238;8.092;2023-03-08T10:07:19;97314.53;;;2.40;90.62
68859;BME280;55864;49.238;8.092;2023-03-08T10:09:30;97301.50;;;2.49;90.59
68859;BME280;55864;49.238;8.092;2023-03-08T10:11:36;97301.22;;;2.52;90.87
68859;BME280;55864;49.238;8.092;2023-03-08T10:13:41;97298.88;;;2.59;90.87
68859;BME280;55864;49.238;8.092;2023-03-08T10:15:45;97293.91;;;2.65;91.24
68859;BME280;55864;49.238;8.092;2023-03-08T10:17:48;97291.25;;;2.57;92.05
68859;BME280;55864;49.238;8.092;2023-03-08T10:19:54;97286.84;;;2.58;91.85
68859;BME280;55864;49.238;8.092;2023-03-08T10:21:57;97284.88;;;2.69;92.08
68859;BME280;55864;49.238;8.092;2023-03-08T10:24:14;97271.72;;;2.63;92.93
68859;BME280;55864;49.238;8.092;2023-03-08T10:26:15;97273.84;;;2.67;92.69
68859;BME280;55864;49.238;8.092;2023-03-08T10:28:17;97274.41;;;2.61;93.27
68859;BME280;55864;49.238;8.092;2023-03-08T10:30:22;97271.41;;;2.66;93.70
68859;BME280;55864;49.238;8.092;2023-03-08T10:32:25;97259.72;;;2.79;93.35
68859;BME280;55864;49.238;8.092;2023-03-08T10:34:29;97259.84;;;2.96;93.03
68859;BME280;55864;49.238;8.092;2023-03-08T10:36:30;97268.59;;;2.95;92.61
68859;BME280;55864;49.238;8.092;2023-03-08T10:38:32;97251.13;;;2.97;92.71
68859;BME280;55864;49.238;8.092;2023-03-08T10:40:32;97257.47;;;2.84;93.01
68859;BME280;55864;49.238;8.092;2023-03-08T10:42:34;97248.13;;;2.92;93.85
68859;BME280;55864;49.238;8.092;2023-03-08T10:44:37;97245.94;;;2.97;93.91
68859;BME280;55864;49.238;8.092;2023-03-08T10:46:47;97245.13;;;2.96;94.08
68859;BME280;55864;49.238;8.092;2023-03-08T10:48:48;97247.78;;;3.04;94.05
68859;BME280;55864;49.238;8.092;2023-03-08T10:50:57;97245.63;;;3.00;94.69
68859;BME280;55864;49.238;8.092;2023-03-08T10:53:08;97233.63;;;2.99;94.94
68859;BME280;55864;49.238;8.092;2023-03-08T10:55:11;97233.91;;;2.96;96.56
68859;BME280;55864;49.238;8.092;2023-03-08T10:57:17;97222.44;;;2.98;96.39